sensor_id;sensor_type;location;lat;lon;timestamp;P1;durP1;ratioP1;P2;durP2;ratioP2
80119;SDS011;69425;55.040;82.918;2023-04-24T00:01:01;3.60;;;1.70;;
80119;SDS011;69425;55.040;82.918;2023-04-24T00:06:04;5.70;;;1.38;;
80119;SDS011;69425;55.040;82.918;2023-04-24T00:11:06;4.22;;;1.33;;
80119;SDS011;69425;55.040;82.918;2023-04-24T00:16:07;1.70;;;1.38;;
80119;SDS011;69425;55.040;82.918;2023-04-24T00:21:09;3.88;;;1.83;;
80119;SDS011;69425;55.040;82.918;2023-04-24T00:26:11;2.63;;;1.50;;
80119;SDS011;69425;55.040;82.918;2023-04-24T00:31:12;2.10;;;1.42;;
80119;SDS011;69425;55.040;82.918;2023-04-24T00:36:14;3.63;;;1.70;;
80119;SDS011;69425;55.040;82.918;2023-04-24T00:41:16;4.75;;;1.88;;
80119;SDS011;69425;55.040;82.918;2023-04-24T00:46:17;3.40;;;1.70;;
80119;SDS011;69425;55.040;82.918;2023-04-24T00:51:19;4.95;;;1.23;;
80119;SDS011;69425;55.040;82.918;2023-04-24T00:56:20;7.88;;;1.50;;
80119;SDS011;69425;55.040;82.918;2023-04-24T01:01:22;3.13;;;1.27;;
80119;SDS011;69425;55.040;82.918;2023-04-24T01:06:24;3.95;;;1.60;;
80119;SDS011;69425;55.040;82.918;2023-04-24T01:11:28;10.93;;;1.92;;
80119;SDS011;69425;55.040;82.918;2023-04-24T01:16:29;2.28;;;1.45;;
80119;SDS011;69425;55.040;82.918;2023-04-24T01:21:32;3.90;;;1.40;;
80119;SDS011;69425;55.040;82.918;2023-04-24T01:26:37;3.85;;;1.77;;
80119;SDS011;69425;55.040;82.918;2023-04-24T01:31:39;2.75;;;1.48;;
80119;SDS011;69425;55.040;82.918;2023-04-24T01:36:40;6.90;;;1.60;;
80119;SDS011;69425;55.040;82.918;2023-04-24T01:41:43;5.28;;;1.30;;
80119;SDS011;69425;55.040;82.918;2023-04-24T01:46:45;6.25;;;1.50;;
80119;SDS011;69425;55.040;82.918;2023-04-24T01:51:46;3.25;;;1.20;;
80119;SDS011;69425;55.040;82.918;2023-04-24T01:56:48;3.53;;;1.30;;
80119;SDS011;69425;55.040;82.918;2023-04-24T02:01:50;5.80;;;1.67;;
80119;SDS011;69425;55.040;82.918;2023-04-24T02:06:51;5.72;;;2.00;;
80119;SDS011;69425;55.040;82.918;2023-04-24T02:11:53;7.38;;;2.05;;
80119;SDS011;69425;55.040;82.918;2023-04-24T02:16:54;9.00;;;1.98;;
80119;SDS011;69425;55.040;82.918;2023-04-24T02:21:56;3.80;;;1.30;;
80119;SDS011;69425;55.040;82.918;2023-04-24T02:26:58;4.60;;;1.58;;
80119;SDS011;69425;55.040;82.918;2023-04-24T02:31:59;5.32;;;1.55;;
80119;SDS011;69425;55.040;82.918;2023-04-24T02:37:01;1.92;;;1.25;;
80119;SDS011;69425;55.040;82.918;2023-04-24T02:42:03;3.67;;;1.45;;
80119;SDS011;69425;55.040;82.918;2023-04-24T02:47:05;3.45;;;1.60;;
80119;SDS011;69425;55.040;82.918;2023-04-24T02:52:06;3.17;;;1.40;;
80119;SDS011;69425;55.040;82.918;2023-04-24T02:57:08;6.43;;;1.83;;
80119;SDS011;69425;55.040;82.918;2023-04-24T03:02:09;12.82;;;1.80;;
80119;SDS011;69425;55.040;82.918;2023-04-24T03:07:11;4.47;;;1.30;;
80119;SDS011;69425;55.040;82.918;2023-04-24T03:12:13;11.52;;;2.13;;
80119;SDS011;69425;55.040;82.918;2023-04-24T03:17:14;2.53;;;1.45;;
80119;SDS011;69425;55.040;82.918;2023-04-24T03:22:16;4.93;;;1.83;;
80119;SDS011;69425;55.040;82.918;2023-04-24T03:27:18;8.40;;;1.30;;
80119;SDS011;69425;55.040;82.918;2023-04-24T03:32:19;5.07;;;2.03;;
80119;SDS011;69425;55.040;82.918;2023-04-24T03:37:21;4.55;;;1.52;;
80119;SDS011;69425;55.040;82.918;2023-04-24T03:42:23;4.90;;;2.22;;
80119;SDS011;69425;55.040;82.918;2023-04-24T03:47:24;3.65;;;1.45;;
80119;SDS011;69425;55.040;82.918;2023-04-24T03:52:25;5.28;;;1.58;;
80119;SDS011;69425;55.040;82.918;2023-04-24T03:57:28;5.45;;;1.20;;
80119;SDS011;69425;55.040;82.918;2023-04-24T04:02:29;8.15;;;2.08;;
80119;SDS011;69425;55.040;82.918;2023-04-24T04:07:30;5.10;;;1.15;;
80119;SDS011;69425;55.040;82.918;2023-04-24T04:12:33;9.70;;;2.20;;
80119;SDS011;69425;55.040;82.918;2023-04-24T04:17:34;7.13;;;1.35;;
80119;SDS011;69425;55.040;82.918;2023-04-24T04:22:37;4.35;;;1.70;;
80119;SDS011;69425;55.040;82.918;2023-04-24T04:27:39;4.13;;;1.65;;
80119;SDS011;69425;55.040;82.918;2023-04-24T04:32:40;7.82;;;1.40;;
80119;SDS011;69425;55.040;82.918;2023-04-24T04:37:42;3.58;;;1.63;;
80119;SDS011;69425;55.040;82.918;2023-04-24T04:42:44;2.25;;;1.50;;
80119;SDS011;69425;55.040;82.918;2023-04-24T04:47:45;7.50;;;1.15;;
80119;SDS011;69425;55.040;82.918;2023-04-24T04:57:49;5.10;;;1.38;;
80119;SDS011;69425;55.040;82.918;2023-04-24T05:02:51;3.55;;;1.17;;
80119;SDS011;69425;55.040;82.918;2023-04-24T05:07:52;3.95;;;1.20;;
80119;SDS011;69425;55.040;82.918;2023-04-24T05:12:54;4.82;;;1.40;;
80119;SDS011;69425;55.040;82.918;2023-04-24T05:17:55;3.47;;;1.33;;
80119;SDS011;69425;55.040;82.918;2023-04-24T05:22:57;5.82;;;1.35;;
80119;SDS011;69425;55.040;82.918;2023-04-24T05:27:59;5.13;;;1.42;;
80119;SDS011;69425;55.040;82.918;2023-04-24T05:33:00;5.38;;;1.50;;
80119;SDS011;69425;55.040;82.918;2023-04-24T05:38:02;3.03;;;1.13;;
80119;SDS011;69425;55.040;82.918;2023-04-24T05:43:04;4.57;;;1.17;;
80119;SDS011;69425;55.040;82.918;2023-04-24T05:48:05;4.40;;;1.20;;
80119;SDS011;69425;55.040;82.918;2023-04-24T05:53:06;7.30;;;1.42;;
80119;SDS011;69425;55.040;82.918;2023-04-24T05:58:09;3.33;;;0.90;;
80119;SDS011;69425;55.040;82.918;2023-04-24T06:03:10;2.38;;;1.00;;
80119;SDS011;69425;55.040;82.918;2023-04-24T06:08:12;4.57;;;1.30;;
80119;SDS011;69425;55.040;82.918;2023-04-24T06:13:14;2.28;;;0.88;;
80119;SDS011;69425;55.040;82.918;2023-04-24T06:18:16;2.35;;;1.30;;
80119;SDS011;69425;55.040;82.918;2023-04-24T06:23:17;3.25;;;1.27;;
80119;SDS011;69425;55.040;82.918;2023-04-24T06:28:20;3.63;;;1.08;;
80119;SDS011;69425;55.040;82.918;2023-04-24T06:33:21;5.63;;;1.58;;
80119;SDS011;69425;55.040;82.918;2023-04-24T06:38:22;3.17;;;1.10;;
80119;SDS011;69425;55.040;82.918;2023-04-24T06:43:25;3.05;;;1.30;;
80119;SDS011;69425;55.040;82.918;2023-04-24T06:48:26;4.22;;;1.25;;
80119;SDS011;69425;55.040;82.918;2023-04-24T06:58:29;3.13;;;1.20;;
80119;SDS011;69425;55.040;82.918;2023-04-24T07:03:31;2.85;;;1.27;;
80119;SDS011;69425;55.040;82.918;2023-04-24T07:08:32;1.95;;;1.00;;
80119;SDS011;69425;55.040;82.918;2023-04-24T07:18:35;4.72;;;1.20;;
80119;SDS011;69425;55.040;82.918;2023-04-24T07:23:36;4.85;;;1.17;;
80119;SDS011;69425;55.040;82.918;2023-04-24T07:33:40;2.47;;;0.93;;
80119;SDS011;69425;55.040;82.918;2023-04-24T07:43:43;6.38;;;1.20;;
80119;SDS011;69425;55.040;82.918;2023-04-24T07:48:45;2.28;;;1.17;;
80119;SDS011;69425;55.040;82.918;2023-04-24T07:53:46;3.08;;;1.27;;
80119;SDS011;69425;55.040;82.918;2023-04-24T07:58:49;1.73;;;0.77;;
80119;SDS011;69425;55.040;82.918;2023-04-24T08:03:50;2.40;;;0.93;;
80119;SDS011;69425;55.040;82.918;2023-04-24T08:08:51;2.55;;;1.05;;
80119;SDS011;69425;55.040;82.918;2023-04-24T08:18:54;1.98;;;1.10;;
80119;SDS011;69425;55.040;82.918;2023-04-24T08:28:58;2.63;;;1.08;;
80119;SDS011;69425;55.040;82.918;2023-04-24T08:33:59;2.40;;;1.20;;
80119;SDS011;69425;55.040;82.918;2023-04-24T08:39:00;3.42;;;1.42;;
80119;SDS011;69425;55.040;82.918;2023-04-24T08:44:03;2.70;;;1.35;;
80119;SDS011;69425;55.040;82.918;2023-04-24T08:49:04;3.70;;;1.05;;
80119;SDS011;69425;55.040;82.918;2023-04-24T08:54:05;3.88;;;1.48;;
80119;SDS011;69425;55.040;82.918;2023-04-24T08:59:09;1.45;;;0.88;;
80119;SDS011;69425;55.040;82.918;2023-04-24T09:04:10;2.97;;;1.13;;
80119;SDS011;69425;55.040;82.918;2023-04-24T09:09:11;3.42;;;1.40;;
80119;SDS011;69425;55.040;82.918;2023-04-24T09:14:14;3.72;;;1.33;;
80119;SDS011;69425;55.040;82.918;2023-04-24T09:19:16;3.42;;;1.67;;
80119;SDS011;69425;55.040;82.918;2023-04-24T09:24:17;6.47;;;1.80;;
80119;SDS011;69425;55.040;82.918;2023-04-24T09:29:21;4.30;;;2.10;;
80119;SDS011;69425;55.040;82.918;2023-04-24T09:34:22;4.07;;;2.00;;
80119;SDS011;69425;55.040;82.918;2023-04-24T09:39:24;4.88;;;1.95;;
80119;SDS011;69425;55.040;82.918;2023-04-24T09:44:27;7.15;;;1.98;;
80119;SDS011;69425;55.040;82.918;2023-04-24T09:49:29;3.97;;;2.10;;
80119;SDS011;69425;55.040;82.918;2023-04-24T09:54:31;4.55;;;2.20;;
80119;SDS011;69425;55.040;82.918;2023-04-24T09:59:33;9.80;;;2.50;;
80119;SDS011;69425;55.040;82.918;2023-04-24T10:04:35;5.68;;;2.05;;
80119;SDS011;69425;55.040;82.918;2023-04-24T10:09:36;6.43;;;2.75;;
80119;SDS011;69425;55.040;82.918;2023-04-24T10:14:39;5.13;;;2.13;;
80119;SDS011;69425;55.040;82.918;2023-04-24T10:19:40;4.18;;;2.35;;
80119;SDS011;69425;55.040;82.918;2023-04-24T10:24:42;4.60;;;2.13;;
80119;SDS011;69425;55.040;82.918;2023-04-24T10:29:45;7.80;;;2.15;;
80119;SDS011;69425;55.040;82.918;2023-04-24T10:34:48;4.32;;;2.45;;
80119;SDS011;69425;55.040;82.918;2023-04-24T10:39:49;4.43;;;2.10;;
80119;SDS011;69425;55.040;82.918;2023-04-24T10:44:52;5.38;;;2.08;;
80119;SDS011;69425;55.040;82.918;2023-04-24T10:49:53;4.82;;;2.30;;
80119;SDS011;69425;55.040;82.918;2023-04-24T10:54:54;4.82;;;2.10;;
80119;SDS011;69425;55.040;82.918;2023-04-24T11:00:15;5.80;;;2.55;;
80119;SDS011;69425;55.040;82.918;2023-04-24T11:05:19;3.95;;;2.22;;
80119;SDS011;69425;55.040;82.918;2023-04-24T11:10:25;6.53;;;3.17;;
80119;SDS011;69425;55.040;82.918;2023-04-24T11:15:28;5.65;;;2.58;;
80119;SDS011;69425;55.040;82.918;2023-04-24T11:20:29;3.75;;;2.17;;
80119;SDS011;69425;55.040;82.918;2023-04-24T11:25:30;4.57;;;3.22;;
80119;SDS011;69425;55.040;82.918;2023-04-24T11:30:33;4.88;;;2.40;;
80119;SDS011;69425;55.040;82.918;2023-04-24T11:35:35;2.72;;;2.08;;
80119;SDS011;69425;55.040;82.918;2023-04-24T11:40:36;7.40;;;1.90;;
80119;SDS011;69425;55.040;82.918;2023-04-24T11:45:47;4.55;;;1.85;;
80119;SDS011;69425;55.040;82.918;2023-04-24T11:50:48;4.13;;;1.60;;
80119;SDS011;69425;55.040;82.918;2023-04-24T11:55:51;6.53;;;1.98;;
80119;SDS011;69425;55.040;82.918;2023-04-24T12:00:57;6.00;;;2.53;;
80119;SDS011;69425;55.040;82.918;2023-04-24T12:06:04;10.55;;;6.00;;
80119;SDS011;69425;55.040;82.918;2023-04-24T12:11:06;14.50;;;7.25;;
80119;SDS011;69425;55.040;82.918;2023-04-24T12:16:09;13.95;;;8.95;;
80119;SDS011;69425;55.040;82.918;2023-04-24T12:21:20;15.45;;;10.25;;
80119;SDS011;69425;55.040;82.918;2023-04-24T12:26:22;26.30;;;17.08;;
80119;SDS011;69425;55.040;82.918;2023-04-24T12:31:24;32.53;;;21.17;;
80119;SDS011;69425;55.040;82.918;2023-04-24T12:36:26;32.42;;;21.15;;
80119;SDS011;69425;55.040;82.918;2023-04-24T12:41:30;29.70;;;20.35;;
80119;SDS011;69425;55.040;82.918;2023-04-24T12:46:33;28.65;;;18.10;;
80119;SDS011;69425;55.040;82.918;2023-04-24T12:51:34;30.63;;;18.90;;
80119;SDS011;69425;55.040;82.918;2023-04-24T12:56:35;26.52;;;16.67;;
80119;SDS011;69425;55.040;82.918;2023-04-24T13:01:38;26.58;;;17.30;;
80119;SDS011;69425;55.040;82.918;2023-04-24T13:06:39;27.52;;;16.30;;
80119;SDS011;69425;55.040;82.918;2023-04-24T13:16:42;32.75;;;17.90;;
80119;SDS011;69425;55.040;82.918;2023-04-24T13:21:43;22.00;;;14.25;;
80119;SDS011;69425;55.040;82.918;2023-04-24T13:26:45;19.60;;;11.48;;
80119;SDS011;69425;55.040;82.918;2023-04-24T13:31:49;17.63;;;10.40;;
80119;SDS011;69425;55.040;82.918;2023-04-24T13:36:52;18.02;;;10.82;;
80119;SDS011;69425;55.040;82.918;2023-04-24T13:41:53;16.55;;;10.63;;
80119;SDS011;69425;55.040;82.918;2023-04-24T13:46:56;19.30;;;12.43;;
80119;SDS011;69425;55.040;82.918;2023-04-24T13:51:58;20.65;;;12.43;;
80119;SDS011;69425;55.040;82.918;2023-04-24T14:02:01;18.77;;;11.35;;
80119;SDS011;69425;55.040;82.918;2023-04-24T14:07:02;19.77;;;13.48;;
80119;SDS011;69425;55.040;82.918;2023-04-24T14:17:05;15.60;;;9.98;;
80119;SDS011;69425;55.040;82.918;2023-04-24T14:22:07;12.38;;;9.70;;
80119;SDS011;69425;55.040;82.918;2023-04-24T14:27:08;20.17;;;10.40;;
80119;SDS011;69425;55.040;82.918;2023-04-24T14:37:11;16.98;;;8.90;;
80119;SDS011;69425;55.040;82.918;2023-04-24T14:42:12;13.63;;;9.30;;
80119;SDS011;69425;55.040;82.918;2023-04-24T14:47:15;13.40;;;8.68;;
80119;SDS011;69425;55.040;82.918;2023-04-24T14:52:16;15.93;;;9.10;;
80119;SDS011;69425;55.040;82.918;2023-04-24T15:02:21;13.85;;;8.77;;
80119;SDS011;69425;55.040;82.918;2023-04-24T15:07:22;14.70;;;10.07;;
80119;SDS011;69425;55.040;82.918;2023-04-24T15:12:24;10.98;;;6.97;;
80119;SDS011;69425;55.040;82.918;2023-04-24T15:17:26;6.90;;;4.65;;
80119;SDS011;69425;55.040;82.918;2023-04-24T15:22:27;6.07;;;3.42;;
80119;SDS011;69425;55.040;82.918;2023-04-24T15:27:38;4.32;;;3.65;;
80119;SDS011;69425;55.040;82.918;2023-04-24T15:32:41;4.10;;;3.13;;
80119;SDS011;69425;55.040;82.918;2023-04-24T15:37:43;3.00;;;2.13;;
80119;SDS011;69425;55.040;82.918;2023-04-24T15:42:44;1.95;;;1.70;;
80119;SDS011;69425;55.040;82.918;2023-04-24T15:47:47;2.58;;;1.38;;
80119;SDS011;69425;55.040;82.918;2023-04-24T15:52:48;2.08;;;1.50;;
80119;SDS011;69425;55.040;82.918;2023-04-24T15:57:49;2.28;;;1.30;;
80119;SDS011;69425;55.040;82.918;2023-04-24T16:02:52;1.38;;;1.02;;
80119;SDS011;69425;55.040;82.918;2023-04-24T16:07:53;2.72;;;1.15;;
80119;SDS011;69425;55.040;82.918;2023-04-24T16:12:54;2.25;;;0.82;;
80119;SDS011;69425;55.040;82.918;2023-04-24T16:17:57;0.90;;;0.70;;
80119;SDS011;69425;55.040;82.918;2023-04-24T16:22:58;1.23;;;0.70;;
80119;SDS011;69425;55.040;82.918;2023-04-24T16:27:59;2.17;;;0.95;;
80119;SDS011;69425;55.040;82.918;2023-04-24T16:33:02;1.58;;;1.05;;
80119;SDS011;69425;55.040;82.918;2023-04-24T16:38:03;1.27;;;0.70;;
80119;SDS011;69425;55.040;82.918;2023-04-24T16:43:04;1.00;;;0.73;;
80119;SDS011;69425;55.040;82.918;2023-04-24T16:48:07;1.33;;;0.80;;
80119;SDS011;69425;55.040;82.918;2023-04-24T16:53:08;0.85;;;0.68;;
80119;SDS011;69425;55.040;82.918;2023-04-24T16:58:09;1.08;;;0.60;;
80119;SDS011;69425;55.040;82.918;2023-04-24T17:03:11;0.60;;;0.30;;
80119;SDS011;69425;55.040;82.918;2023-04-24T17:08:13;1.25;;;0.60;;
80119;SDS011;69425;55.040;82.918;2023-04-24T17:13:14;0.40;;;0.40;;
80119;SDS011;69425;55.040;82.918;2023-04-24T17:18:16;0.40;;;0.35;;
80119;SDS011;69425;55.040;82.918;2023-04-24T17:23:18;0.43;;;0.30;;
80119;SDS011;69425;55.040;82.918;2023-04-24T17:28:23;0.82;;;0.55;;
80119;SDS011;69425;55.040;82.918;2023-04-24T17:33:26;0.47;;;0.30;;
80119;SDS011;69425;55.040;82.918;2023-04-24T17:38:28;1.90;;;0.30;;
80119;SDS011;69425;55.040;82.918;2023-04-24T17:43:29;0.60;;;0.40;;
80119;SDS011;69425;55.040;82.918;2023-04-24T17:48:32;0.30;;;0.20;;
80119;SDS011;69425;55.040;82.918;2023-04-24T17:53:34;0.47;;;0.20;;
80119;SDS011;69425;55.040;82.918;2023-04-24T17:58:35;0.15;;;0.10;;
80119;SDS011;69425;55.040;82.918;2023-04-24T18:03:38;0.22;;;0.20;;
80119;SDS011;69425;55.040;82.918;2023-04-24T18:08:39;0.65;;;0.25;;
80119;SDS011;69425;55.040;82.918;2023-04-24T18:13:40;0.38;;;0.22;;
80119;SDS011;69425;55.040;82.918;2023-04-24T18:18:42;0.40;;;0.17;;
80119;SDS011;69425;55.040;82.918;2023-04-24T18:23:44;0.40;;;0.40;;
80119;SDS011;69425;55.040;82.918;2023-04-24T18:28:45;0.60;;;0.30;;
80119;SDS011;69425;55.040;82.918;2023-04-24T18:33:47;1.48;;;0.60;;
80119;SDS011;69425;55.040;82.918;2023-04-24T18:38:49;1.02;;;0.40;;
80119;SDS011;69425;55.040;82.918;2023-04-24T18:43:50;1.13;;;0.30;;
80119;SDS011;69425;55.040;82.918;2023-04-24T18:48:52;0.52;;;0.50;;
80119;SDS011;69425;55.040;82.918;2023-04-24T18:53:53;0.73;;;0.40;;
80119;SDS011;69425;55.040;82.918;2023-04-24T18:58:55;0.40;;;0.30;;
80119;SDS011;69425;55.040;82.918;2023-04-24T19:03:57;1.17;;;0.40;;
80119;SDS011;69425;55.040;82.918;2023-04-24T19:08:58;1.42;;;0.50;;
80119;SDS011;69425;55.040;82.918;2023-04-24T19:14:00;0.80;;;0.55;;
80119;SDS011;69425;55.040;82.918;2023-04-24T19:19:02;0.80;;;0.40;;
80119;SDS011;69425;55.040;82.918;2023-04-24T19:24:03;0.88;;;0.50;;
80119;SDS011;69425;55.040;82.918;2023-04-24T19:29:05;0.43;;;0.40;;
80119;SDS011;69425;55.040;82.918;2023-04-24T19:34:07;0.52;;;0.22;;
80119;SDS011;69425;55.040;82.918;2023-04-24T19:39:09;0.82;;;0.52;;
80119;SDS011;69425;55.040;82.918;2023-04-24T19:44:10;0.88;;;0.40;;
80119;SDS011;69425;55.040;82.918;2023-04-24T19:49:12;0.20;;;0.15;;
80119;SDS011;69425;55.040;82.918;2023-04-24T19:54:14;2.05;;;0.38;;
80119;SDS011;69425;55.040;82.918;2023-04-24T19:59:15;0.30;;;0.30;;
80119;SDS011;69425;55.040;82.918;2023-04-24T20:04:17;0.22;;;0.20;;
80119;SDS011;69425;55.040;82.918;2023-04-24T20:09:18;0.40;;;0.30;;
80119;SDS011;69425;55.040;82.918;2023-04-24T20:14:20;0.60;;;0.30;;
80119;SDS011;69425;55.040;82.918;2023-04-24T20:19:22;1.52;;;0.40;;
80119;SDS011;69425;55.040;82.918;2023-04-24T20:24:23;0.73;;;0.43;;
80119;SDS011;69425;55.040;82.918;2023-04-24T20:29:24;1.23;;;0.47;;
80119;SDS011;69425;55.040;82.918;2023-04-24T20:34:27;0.25;;;0.20;;
80119;SDS011;69425;55.040;82.918;2023-04-24T20:39:28;0.70;;;0.70;;
80119;SDS011;69425;55.040;82.918;2023-04-24T20:44:29;0.73;;;0.38;;
80119;SDS011;69425;55.040;82.918;2023-04-24T20:49:32;0.20;;;0.15;;
80119;SDS011;69425;55.040;82.918;2023-04-24T20:54:33;1.85;;;0.60;;
80119;SDS011;69425;55.040;82.918;2023-04-24T20:59:35;1.35;;;0.30;;
80119;SDS011;69425;55.040;82.918;2023-04-24T21:04:37;1.35;;;0.30;;
80119;SDS011;69425;55.040;82.918;2023-04-24T21:09:38;0.52;;;0.20;;
80119;SDS011;69425;55.040;82.918;2023-04-24T21:14:39;1.33;;;0.28;;
80119;SDS011;69425;55.040;82.918;2023-04-24T21:19:42;0.68;;;0.43;;
80119;SDS011;69425;55.040;82.918;2023-04-24T21:24:43;0.60;;;0.30;;
80119;SDS011;69425;55.040;82.918;2023-04-24T21:29:44;0.17;;;0.17;;
80119;SDS011;69425;55.040;82.918;2023-04-24T21:34:47;0.50;;;0.45;;
80119;SDS011;69425;55.040;82.918;2023-04-24T21:39:49;0.30;;;0.20;;
80119;SDS011;69425;55.040;82.918;2023-04-24T21:44:50;0.17;;;0.10;;
80119;SDS011;69425;55.040;82.918;2023-04-24T21:49:53;0.32;;;0.20;;
80119;SDS011;69425;55.040;82.918;2023-04-24T21:54:54;0.20;;;0.20;;
80119;SDS011;69425;55.040;82.918;2023-04-24T21:59:56;0.30;;;0.25;;
80119;SDS011;69425;55.040;82.918;2023-04-24T22:04:58;0.17;;;0.15;;
80119;SDS011;69425;55.040;82.918;2023-04-24T22:09:59;0.28;;;0.22;;
80119;SDS011;69425;55.040;82.918;2023-04-24T22:15:01;0.38;;;0.20;;
80119;SDS011;69425;55.040;82.918;2023-04-24T22:20:04;1.55;;;0.20;;
80119;SDS011;69425;55.040;82.918;2023-04-24T22:25:09;0.20;;;0.20;;
80119;SDS011;69425;55.040;82.918;2023-04-24T22:30:10;0.20;;;0.13;;
80119;SDS011;69425;55.040;82.918;2023-04-24T22:35:13;0.40;;;0.20;;
80119;SDS011;69425;55.040;82.918;2023-04-24T22:40:14;0.32;;;0.20;;
80119;SDS011;69425;55.040;82.918;2023-04-24T22:45:15;3.50;;;0.35;;
80119;SDS011;69425;55.040;82.918;2023-04-24T22:50:18;0.32;;;0.30;;
80119;SDS011;69425;55.040;82.918;2023-04-24T22:55:20;0.47;;;0.20;;
80119;SDS011;69425;55.040;82.918;2023-04-24T23:00:21;0.90;;;0.28;;
80119;SDS011;69425;55.040;82.918;2023-04-24T23:05:23;2.08;;;0.30;;
80119;SDS011;69425;55.040;82.918;2023-04-24T23:10:25;0.40;;;0.20;;
80119;SDS011;69425;55.040;82.918;2023-04-24T23:15:26;0.43;;;0.40;;
80119;SDS011;69425;55.040;82.918;2023-04-24T23:20:28;1.40;;;0.77;;
80119;SDS011;69425;55.040;82.918;2023-04-24T23:25:30;0.68;;;0.40;;
80119;SDS011;69425;55.040;82.918;2023-04-24T23:30:31;2.17;;;0.28;;
80119;SDS011;69425;55.040;82.918;2023-04-24T23:35:33;1.17;;;1.08;;
80119;SDS011;69425;55.040;82.918;2023-04-24T23:40:35;0.35;;;0.30;;
80119;SDS011;69425;55.040;82.918;2023-04-24T23:45:36;0.93;;;0.40;;
80119;SDS011;69425;55.040;82.918;2023-04-24T23:50:38;0.77;;;0.45;;
80119;SDS011;69425;55.040;82.918;2023-04-24T23:55:40;1.15;;;0.65;;
